sensor_id;sensor_type;location;lat;lon;timestamp;pressure;altitude;pressure_sealevel;temperature;humidity
33163;BME280;29282;45.656;11.302;2022-10-16T00:01:59;98805.16;;;19.30;62.56
33163;BME280;29282;45.656;11.302;2022-10-16T00:04:24;98811.50;;;19.31;62.49
33163;BME280;29282;45.656;11.302;2022-10-16T00:06:50;98813.41;;;19.30;62.60
33163;BME280;29282;45.656;11.302;2022-10-16T00:09:16;98807.13;;;19.30;62.58
33163;BME280;29282;45.656;11.302;2022-10-16T00:11:41;98814.25;;;19.31;62.63
33163;BME280;29282;45.656;11.302;2022-10-16T00:14:10;98813.41;;;19.30;62.67
33163;BME280;29282;45.656;11.302;2022-10-16T00:16:36;98813.41;;;19.30;62.55
33163;BME280;29282;45.656;11.302;2022-10-16T00:19:02;98804.38;;;19.30;62.54
33163;BME280;29282;45.656;11.302;2022-10-16T00:21:29;98804.38;;;19.30;62.61
33163;BME280;29282;45.656;11.302;2022-10-16T00:24:03;98808.25;;;19.29;62.49
33163;BME280;29282;45.656;11.302;2022-10-16T00:26:31;98807.13;;;19.30;62.55
33163;BME280;29282;45.656;11.302;2022-10-16T00:28:57;98811.81;;;19.29;62.50
33163;BME280;29282;45.656;11.302;2022-10-16T00:31:23;98812.59;;;19.30;62.55
33163;BME280;29282;45.656;11.302;2022-10-16T00:33:49;98815.34;;;19.30;62.61
33163;BME280;29282;45.656;11.302;2022-10-16T00:36:18;98814.25;;;19.31;62.55
33163;BME280;29282;45.656;11.302;2022-10-16T00:38:44;98812.59;;;19.30;62.45
33163;BME280;29282;45.656;11.302;2022-10-16T00:41:13;98812.59;;;19.30;62.69
33163;BME280;29282;45.656;11.302;2022-10-16T00:48:40;98822.00;;;19.29;62.40
33163;BME280;29282;45.656;11.302;2022-10-16T00:51:07;98822.78;;;19.29;62.53
33163;BME280;29282;45.656;11.302;2022-10-16T00:53:33;98829.91;;;19.30;62.48
33163;BME280;29282;45.656;11.302;2022-10-16T00:56:00;98831.03;;;19.29;62.60
33163;BME280;29282;45.656;11.302;2022-10-16T00:58:26;98833.78;;;19.29;62.59
33163;BME280;29282;45.656;11.302;2022-10-16T01:00:55;98832.97;;;19.29;62.52
33163;BME280;29282;45.656;11.302;2022-10-16T01:03:32;98824.75;;;19.29;62.52
33163;BME280;29282;45.656;11.302;2022-10-16T01:06:22;98825.53;;;19.29;62.50
33163;BME280;29282;45.656;11.302;2022-10-16T01:09:22;98821.19;;;19.28;62.48
33163;BME280;29282;45.656;11.302;2022-10-16T01:14:25;98815.69;;;19.28;62.52
33163;BME280;29282;45.656;11.302;2022-10-16T01:16:53;98813.75;;;19.29;62.38
33163;BME280;29282;45.656;11.302;2022-10-16T01:20:08;98817.31;;;19.29;62.46
33163;BME280;29282;45.656;11.302;2022-10-16T01:22:27;98819.25;;;19.29;62.54
33163;BME280;29282;45.656;11.302;2022-10-16T01:24:58;98822.00;;;19.29;62.67
33163;BME280;29282;45.656;11.302;2022-10-16T01:27:28;98824.75;;;19.29;62.49
33163;BME280;29282;45.656;11.302;2022-10-16T01:30:10;98822.78;;;19.29;62.46
33163;BME280;29282;45.656;11.302;2022-10-16T01:32:42;98828.28;;;19.29;62.50
33163;BME280;29282;45.656;11.302;2022-10-16T01:37:54;98823.13;;;19.28;62.38
33163;BME280;29282;45.656;11.302;2022-10-16T01:40:24;98822.78;;;19.29;62.53
33163;BME280;29282;45.656;11.302;2022-10-16T01:43:07;98821.19;;;19.28;62.48
33163;BME280;29282;45.656;11.302;2022-10-16T01:45:34;98823.13;;;19.28;62.45
33163;BME280;29282;45.656;11.302;2022-10-16T01:48:02;98815.69;;;19.28;62.43
33163;BME280;29282;45.656;11.302;2022-10-16T01:50:32;98819.25;;;19.29;62.50
33163;BME280;29282;45.656;11.302;2022-10-16T01:52:59;98818.44;;;19.28;62.42
33163;BME280;29282;45.656;11.302;2022-10-16T01:55:38;98818.44;;;19.28;62.59
33163;BME280;29282;45.656;11.302;2022-10-16T01:58:08;98833.78;;;19.29;62.40
33163;BME280;29282;45.656;11.302;2022-10-16T02:00:38;98826.69;;;19.28;62.49
33163;BME280;29282;45.656;11.302;2022-10-16T02:03:05;98832.19;;;19.28;62.41
33163;BME280;29282;45.656;11.302;2022-10-16T02:05:58;98837.69;;;19.28;62.40
33163;BME280;29282;45.656;11.302;2022-10-16T02:08:27;98842.38;;;19.28;62.45
33163;BME280;29282;45.656;11.302;2022-10-16T02:10:55;98839.63;;;19.28;62.43
33163;BME280;29282;45.656;11.302;2022-10-16T02:13:39;98833.31;;;19.27;62.46
33163;BME280;29282;45.656;11.302;2022-10-16T02:16:10;98842.38;;;19.28;62.43
33163;BME280;29282;45.656;11.302;2022-10-16T02:18:36;98842.38;;;19.28;62.34
33163;BME280;29282;45.656;11.302;2022-10-16T02:21:10;98847.88;;;19.28;62.45
33163;BME280;29282;45.656;11.302;2022-10-16T02:26:30;98839.63;;;19.28;62.23
33163;BME280;29282;45.656;11.302;2022-10-16T02:29:00;98841.56;;;19.27;62.40
33163;BME280;29282;45.656;11.302;2022-10-16T02:31:32;98843.47;;;19.27;62.40
33163;BME280;29282;45.656;11.302;2022-10-16T02:34:00;98848.97;;;19.27;62.37
33163;BME280;29282;45.656;11.302;2022-10-16T02:36:28;98854.47;;;19.27;62.28
33163;BME280;29282;45.656;11.302;2022-10-16T02:38:54;98849.81;;;19.27;62.44
33163;BME280;29282;45.656;11.302;2022-10-16T02:41:21;98858.84;;;19.28;62.50
33163;BME280;29282;45.656;11.302;2022-10-16T02:43:51;98858.06;;;19.27;62.37
33163;BME280;29282;45.656;11.302;2022-10-16T02:46:17;98860.78;;;19.27;62.44
33163;BME280;29282;45.656;11.302;2022-10-16T02:48:46;98862.72;;;19.27;62.34
33163;BME280;29282;45.656;11.302;2022-10-16T02:51:11;98862.72;;;19.27;62.40
33163;BME280;29282;45.656;11.302;2022-10-16T02:53:37;98861.09;;;19.25;62.43
33163;BME280;29282;45.656;11.302;2022-10-16T02:56:03;98866.59;;;19.25;62.42
33163;BME280;29282;45.656;11.302;2022-10-16T02:58:28;98870.16;;;19.26;62.21
33163;BME280;29282;45.656;11.302;2022-10-16T03:00:55;98869.03;;;19.27;62.39
33163;BME280;29282;45.656;11.302;2022-10-16T03:03:20;98868.22;;;19.27;62.37
33163;BME280;29282;45.656;11.302;2022-10-16T03:05:46;98870.16;;;19.26;62.37
33163;BME280;29282;45.656;11.302;2022-10-16T03:08:12;98862.72;;;19.27;62.42
33163;BME280;29282;45.656;11.302;2022-10-16T03:10:38;98862.72;;;19.27;62.28
33163;BME280;29282;45.656;11.302;2022-10-16T03:13:03;98863.84;;;19.25;62.61
33163;BME280;29282;45.656;11.302;2022-10-16T03:15:29;98868.22;;;19.27;62.38
33163;BME280;29282;45.656;11.302;2022-10-16T03:17:57;98867.41;;;19.26;62.43
33163;BME280;29282;45.656;11.302;2022-10-16T03:20:23;98863.84;;;19.25;62.39
33163;BME280;29282;45.656;11.302;2022-10-16T03:22:51;98861.09;;;19.25;62.43
33163;BME280;29282;45.656;11.302;2022-10-16T03:25:17;98855.63;;;19.25;62.47
33163;BME280;29282;45.656;11.302;2022-10-16T03:27:42;98861.09;;;19.25;62.52
33163;BME280;29282;45.656;11.302;2022-10-16T03:30:09;98861.09;;;19.25;62.32
33163;BME280;29282;45.656;11.302;2022-10-16T03:32:34;98862.25;;;19.24;62.35
33163;BME280;29282;45.656;11.302;2022-10-16T03:35:00;98863.06;;;19.25;62.50
33163;BME280;29282;45.656;11.302;2022-10-16T03:37:25;98862.25;;;19.24;62.31
33163;BME280;29282;45.656;11.302;2022-10-16T03:39:51;98866.59;;;19.25;62.39
33163;BME280;29282;45.656;11.302;2022-10-16T03:42:17;98867.75;;;19.24;62.36
33163;BME280;29282;45.656;11.302;2022-10-16T03:44:42;98870.16;;;19.26;62.29
33163;BME280;29282;45.656;11.302;2022-10-16T03:47:08;98868.53;;;19.25;62.29
33163;BME280;29282;45.656;11.302;2022-10-16T03:49:33;98874.03;;;19.25;62.37
33163;BME280;29282;45.656;11.302;2022-10-16T03:51:59;98875.97;;;19.24;62.38
33163;BME280;29282;45.656;11.302;2022-10-16T03:54:24;98873.25;;;19.24;62.53
33163;BME280;29282;45.656;11.302;2022-10-16T03:56:53;98864.19;;;19.24;62.32
33163;BME280;29282;45.656;11.302;2022-10-16T03:59:18;98862.25;;;19.24;62.49
33163;BME280;29282;45.656;11.302;2022-10-16T04:01:46;98862.25;;;19.24;62.35
33163;BME280;29282;45.656;11.302;2022-10-16T04:04:12;98861.44;;;19.24;62.33
33163;BME280;29282;45.656;11.302;2022-10-16T04:06:37;98863.38;;;19.23;62.25
33163;BME280;29282;45.656;11.302;2022-10-16T04:09:03;98864.19;;;19.24;62.27
33163;BME280;29282;45.656;11.302;2022-10-16T04:11:28;98865.81;;;19.25;62.26
33163;BME280;29282;45.656;11.302;2022-10-16T04:13:54;98868.84;;;19.23;62.02
33163;BME280;29282;45.656;11.302;2022-10-16T04:16:19;98874.34;;;19.23;62.41
33163;BME280;29282;45.656;11.302;2022-10-16T04:18:45;98873.25;;;19.24;62.33
33163;BME280;29282;45.656;11.302;2022-10-16T04:21:11;98873.25;;;19.24;62.35
33163;BME280;29282;45.656;11.302;2022-10-16T04:23:36;98876.78;;;19.25;62.24
33163;BME280;29282;45.656;11.302;2022-10-16T04:26:02;98879.03;;;19.23;62.29
33163;BME280;29282;45.656;11.302;2022-10-16T04:28:28;98883.09;;;19.25;62.26
33163;BME280;29282;45.656;11.302;2022-10-16T04:30:53;98884.22;;;19.24;62.23
33163;BME280;29282;45.656;11.302;2022-10-16T04:33:19;98897.97;;;19.24;62.25
33163;BME280;29282;45.656;11.302;2022-10-16T04:35:44;98897.16;;;19.24;62.23
33163;BME280;29282;45.656;11.302;2022-10-16T04:38:10;98891.66;;;19.24;62.23
33163;BME280;29282;45.656;11.302;2022-10-16T04:40:35;98897.16;;;19.24;62.27
33163;BME280;29282;45.656;11.302;2022-10-16T04:43:05;98904.56;;;19.23;62.31
33163;BME280;29282;45.656;11.302;2022-10-16T04:45:31;98895.53;;;19.23;62.14
33163;BME280;29282;45.656;11.302;2022-10-16T04:47:58;98894.41;;;19.24;62.17
33163;BME280;29282;45.656;11.302;2022-10-16T04:50:23;98908.16;;;19.24;62.23
33163;BME280;29282;45.656;11.302;2022-10-16T04:52:49;98892.78;;;19.23;62.26
33163;BME280;29282;45.656;11.302;2022-10-16T04:55:14;98897.16;;;19.24;62.20
33163;BME280;29282;45.656;11.302;2022-10-16T04:57:41;98895.53;;;19.23;62.29
33163;BME280;29282;45.656;11.302;2022-10-16T05:00:07;98911.22;;;19.22;62.22
33163;BME280;29282;45.656;11.302;2022-10-16T05:02:33;98907.31;;;19.23;62.33
33163;BME280;29282;45.656;11.302;2022-10-16T05:04:58;98906.50;;;19.23;62.14
33163;BME280;29282;45.656;11.302;2022-10-16T05:07:24;98910.06;;;19.23;62.15
33163;BME280;29282;45.656;11.302;2022-10-16T05:09:49;98910.06;;;19.23;62.24
33163;BME280;29282;45.656;11.302;2022-10-16T05:12:15;98907.31;;;19.23;62.01
33163;BME280;29282;45.656;11.302;2022-10-16T05:14:40;98913.94;;;19.22;62.25
33163;BME280;29282;45.656;11.302;2022-10-16T05:17:06;98906.50;;;19.23;62.13
33163;BME280;29282;45.656;11.302;2022-10-16T05:19:31;98912.00;;;19.23;62.21
33163;BME280;29282;45.656;11.302;2022-10-16T05:21:57;98908.47;;;19.22;62.22
33163;BME280;29282;45.656;11.302;2022-10-16T05:24:22;98914.75;;;19.23;62.21
33163;BME280;29282;45.656;11.302;2022-10-16T05:26:49;98907.31;;;19.23;62.17
33163;BME280;29282;45.656;11.302;2022-10-16T05:29:15;98917.50;;;19.23;62.27
33163;BME280;29282;45.656;11.302;2022-10-16T05:31:40;98916.69;;;19.22;62.17
33163;BME280;29282;45.656;11.302;2022-10-16T05:34:06;98912.81;;;19.23;62.22
33163;BME280;29282;45.656;11.302;2022-10-16T05:36:31;98909.25;;;19.23;62.25
33163;BME280;29282;45.656;11.302;2022-10-16T05:38:57;98916.69;;;19.22;62.01
33163;BME280;29282;45.656;11.302;2022-10-16T05:41:22;98911.22;;;19.22;62.14
33163;BME280;29282;45.656;11.302;2022-10-16T05:43:50;98921.88;;;19.24;61.98
33163;BME280;29282;45.656;11.302;2022-10-16T05:46:16;98919.44;;;19.22;62.13
33163;BME280;29282;45.656;11.302;2022-10-16T05:48:42;98922.19;;;19.22;62.11
33163;BME280;29282;45.656;11.302;2022-10-16T05:51:10;98927.69;;;19.22;62.19
33163;BME280;29282;45.656;11.302;2022-10-16T05:53:37;98932.38;;;19.22;62.17
33163;BME280;29282;45.656;11.302;2022-10-16T05:56:04;98935.94;;;19.22;62.21
33163;BME280;29282;45.656;11.302;2022-10-16T05:58:34;98932.03;;;19.23;62.19
33163;BME280;29282;45.656;11.302;2022-10-16T06:01:21;98935.13;;;19.22;62.19
33163;BME280;29282;45.656;11.302;2022-10-16T06:03:52;98938.69;;;19.22;62.13
33163;BME280;29282;45.656;11.302;2022-10-16T06:06:23;98941.41;;;19.22;62.12
33163;BME280;29282;45.656;11.302;2022-10-16T06:08:51;98943.38;;;19.22;62.03
33163;BME280;29282;45.656;11.302;2022-10-16T06:11:19;98949.66;;;19.22;62.12
33163;BME280;29282;45.656;11.302;2022-10-16T06:13:44;98956.75;;;19.23;62.11
33163;BME280;29282;45.656;11.302;2022-10-16T06:16:11;98954.34;;;19.22;62.13
33163;BME280;29282;45.656;11.302;2022-10-16T06:18:38;98959.03;;;19.21;62.09
33163;BME280;29282;45.656;11.302;2022-10-16T06:21:12;98972.44;;;19.23;62.01
33163;BME280;29282;45.656;11.302;2022-10-16T06:23:39;98973.59;;;19.22;62.11
33163;BME280;29282;45.656;11.302;2022-10-16T06:26:12;98981.81;;;19.22;62.14
33163;BME280;29282;45.656;11.302;2022-10-16T06:28:38;98984.56;;;19.22;62.12
33163;BME280;29282;45.656;11.302;2022-10-16T06:31:05;98989.25;;;19.21;62.13
33163;BME280;29282;45.656;11.302;2022-10-16T06:33:32;98978.28;;;19.21;62.12
33163;BME280;29282;45.656;11.302;2022-10-16T06:36:02;98989.25;;;19.21;62.13
33163;BME280;29282;45.656;11.302;2022-10-16T06:38:29;98992.81;;;19.22;62.15
33163;BME280;29282;45.656;11.302;2022-10-16T06:40:54;98992.00;;;19.21;62.14
33163;BME280;29282;45.656;11.302;2022-10-16T06:43:20;98985.72;;;19.21;62.09
33163;BME280;29282;45.656;11.302;2022-10-16T06:45:56;98997.50;;;19.21;62.04
33163;BME280;29282;45.656;11.302;2022-10-16T06:48:23;99000.25;;;19.21;62.03
33163;BME280;29282;45.656;11.302;2022-10-16T06:51:16;98997.50;;;19.21;62.08
33163;BME280;29282;45.656;11.302;2022-10-16T06:53:47;98999.13;;;19.22;62.12
33163;BME280;29282;45.656;11.302;2022-10-16T06:56:21;99009.28;;;19.22;62.04
33163;BME280;29282;45.656;11.302;2022-10-16T06:58:48;99014.78;;;19.22;62.12
33163;BME280;29282;45.656;11.302;2022-10-16T07:01:16;99014.00;;;19.21;62.20
33163;BME280;29282;45.656;11.302;2022-10-16T07:03:43;99015.59;;;19.22;62.07
33163;BME280;29282;45.656;11.302;2022-10-16T07:06:12;99025.78;;;19.22;62.16
33163;BME280;29282;45.656;11.302;2022-10-16T07:08:42;99026.59;;;19.22;62.07
33163;BME280;29282;45.656;11.302;2022-10-16T07:11:10;99025.78;;;19.22;62.08
33163;BME280;29282;45.656;11.302;2022-10-16T07:13:37;99035.97;;;19.21;61.97
33163;BME280;29282;45.656;11.302;2022-10-16T07:16:14;99035.97;;;19.21;62.11
33163;BME280;29282;45.656;11.302;2022-10-16T07:18:40;99040.31;;;19.22;61.98
33163;BME280;29282;45.656;11.302;2022-10-16T07:21:13;99045.00;;;19.22;62.06
33163;BME280;29282;45.656;11.302;2022-10-16T07:23:39;99041.47;;;19.21;62.06
33163;BME280;29282;45.656;11.302;2022-10-16T07:26:05;99046.94;;;19.21;62.13
33163;BME280;29282;45.656;11.302;2022-10-16T07:28:31;99047.75;;;19.22;62.02
33163;BME280;29282;45.656;11.302;2022-10-16T07:31:02;99050.50;;;19.22;62.03
33163;BME280;29282;45.656;11.302;2022-10-16T07:33:29;99055.19;;;19.21;62.28
33163;BME280;29282;45.656;11.302;2022-10-16T07:35:54;99057.94;;;19.21;62.00
33163;BME280;29282;45.656;11.302;2022-10-16T07:38:21;99064.25;;;19.22;62.05
33163;BME280;29282;45.656;11.302;2022-10-16T07:40:46;99062.28;;;19.22;62.04
33163;BME280;29282;45.656;11.302;2022-10-16T07:43:14;99067.78;;;19.22;62.05
33163;BME280;29282;45.656;11.302;2022-10-16T07:45:49;99066.19;;;19.21;62.02
33163;BME280;29282;45.656;11.302;2022-10-16T07:48:16;99076.03;;;19.22;61.94
33163;BME280;29282;45.656;11.302;2022-10-16T07:50:43;99077.97;;;19.22;61.98
33163;BME280;29282;45.656;11.302;2022-10-16T07:53:09;99075.22;;;19.22;62.08
33163;BME280;29282;45.656;11.302;2022-10-16T07:55:35;99081.53;;;19.22;62.12
33163;BME280;29282;45.656;11.302;2022-10-16T07:58:00;99077.97;;;19.22;61.97
33163;BME280;29282;45.656;11.302;2022-10-16T08:00:26;99074.44;;;19.21;62.11
33163;BME280;29282;45.656;11.302;2022-10-16T08:02:51;99075.22;;;19.22;62.03
33163;BME280;29282;45.656;11.302;2022-10-16T08:05:17;99084.28;;;19.22;62.05
33163;BME280;29282;45.656;11.302;2022-10-16T08:07:42;99080.72;;;19.22;62.00
33163;BME280;29282;45.656;11.302;2022-10-16T08:10:18;99088.97;;;19.22;61.98
33163;BME280;29282;45.656;11.302;2022-10-16T08:12:44;99088.97;;;19.22;62.07
33163;BME280;29282;45.656;11.302;2022-10-16T08:15:09;99087.03;;;19.22;61.99
33163;BME280;29282;45.656;11.302;2022-10-16T08:17:35;99090.91;;;19.21;62.02
33163;BME280;29282;45.656;11.302;2022-10-16T08:20:01;99092.53;;;19.22;62.07
33163;BME280;29282;45.656;11.302;2022-10-16T08:22:27;99094.47;;;19.22;62.02
33163;BME280;29282;45.656;11.302;2022-10-16T08:24:52;99096.41;;;19.21;62.01
33163;BME280;29282;45.656;11.302;2022-10-16T08:27:18;99095.25;;;19.22;61.98
33163;BME280;29282;45.656;11.302;2022-10-16T08:29:43;99092.53;;;19.22;61.83
33163;BME280;29282;45.656;11.302;2022-10-16T08:32:09;99095.25;;;19.22;61.94
33163;BME280;29282;45.656;11.302;2022-10-16T08:34:34;99089.78;;;19.22;62.00
33163;BME280;29282;45.656;11.302;2022-10-16T08:37:00;99092.22;;;19.24;61.93
33163;BME280;29282;45.656;11.302;2022-10-16T08:39:25;99096.88;;;19.23;61.90
33163;BME280;29282;45.656;11.302;2022-10-16T08:50:10;99096.88;;;19.23;61.83
33163;BME280;29282;45.656;11.302;2022-10-16T08:52:40;99102.06;;;19.25;61.90
33163;BME280;29282;45.656;11.302;2022-10-16T08:55:16;99091.38;;;19.23;61.99
33163;BME280;29282;45.656;11.302;2022-10-16T08:57:46;99096.56;;;19.25;62.12
33163;BME280;29282;45.656;11.302;2022-10-16T09:00:13;99093.03;;;19.24;61.86
33163;BME280;29282;45.656;11.302;2022-10-16T09:02:42;99099.31;;;19.25;61.88
33163;BME280;29282;45.656;11.302;2022-10-16T09:05:21;99089.47;;;19.24;61.98
33163;BME280;29282;45.656;11.302;2022-10-16T09:08:37;99091.88;;;19.25;61.86
33163;BME280;29282;45.656;11.302;2022-10-16T09:10:50;99084.78;;;19.24;61.82
33163;BME280;29282;45.656;11.302;2022-10-16T09:13:38;99091.06;;;19.25;61.79
33163;BME280;29282;45.656;11.302;2022-10-16T09:16:25;99098.19;;;19.26;61.81
33163;BME280;29282;45.656;11.302;2022-10-16T09:21:35;99091.88;;;19.25;61.81
33163;BME280;29282;45.656;11.302;2022-10-16T09:24:11;99094.31;;;19.27;61.79
33163;BME280;29282;45.656;11.302;2022-10-16T09:26:37;99102.56;;;19.27;61.75
33163;BME280;29282;45.656;11.302;2022-10-16T09:29:03;99102.56;;;19.27;61.78
33163;BME280;29282;45.656;11.302;2022-10-16T09:31:28;99093.47;;;19.27;61.82
33163;BME280;29282;45.656;11.302;2022-10-16T09:33:58;99098.97;;;19.27;61.84
33163;BME280;29282;45.656;11.302;2022-10-16T09:36:26;99104.97;;;19.29;61.73
33163;BME280;29282;45.656;11.302;2022-10-16T09:39:09;99103.38;;;19.28;61.84
33163;BME280;29282;45.656;11.302;2022-10-16T09:41:37;99101.41;;;19.28;61.74
33163;BME280;29282;45.656;11.302;2022-10-16T09:44:13;99095.94;;;19.28;61.76
33163;BME280;29282;45.656;11.302;2022-10-16T09:46:41;99097.06;;;19.27;61.79
33163;BME280;29282;45.656;11.302;2022-10-16T09:49:22;99099.81;;;19.27;61.75
33163;BME280;29282;45.656;11.302;2022-10-16T09:51:49;99090.44;;;19.28;61.83
33163;BME280;29282;45.656;11.302;2022-10-16T09:54:20;99098.69;;;19.28;61.79
33163;BME280;29282;45.656;11.302;2022-10-16T09:56:47;99096.22;;;19.27;61.86
33163;BME280;29282;45.656;11.302;2022-10-16T09:59:21;99098.97;;;19.27;61.90
33163;BME280;29282;45.656;11.302;2022-10-16T10:01:53;99095.13;;;19.28;61.88
33163;BME280;29282;45.656;11.302;2022-10-16T10:04:21;99084.13;;;19.28;61.77
33163;BME280;29282;45.656;11.302;2022-10-16T10:06:55;99094.78;;;19.29;61.89
33163;BME280;29282;45.656;11.302;2022-10-16T10:09:38;99092.38;;;19.28;61.73
33163;BME280;29282;45.656;11.302;2022-10-16T10:12:21;99095.13;;;19.28;61.83
33163;BME280;29282;45.656;11.302;2022-10-16T10:14:52;99092.38;;;19.28;61.90
33163;BME280;29282;45.656;11.302;2022-10-16T10:17:20;99084.13;;;19.28;61.85
33163;BME280;29282;45.656;11.302;2022-10-16T10:20:00;99084.13;;;19.28;61.76
33163;BME280;29282;45.656;11.302;2022-10-16T10:22:46;99101.41;;;19.28;61.82
33163;BME280;29282;45.656;11.302;2022-10-16T10:30:22;99094.31;;;19.27;61.83
33163;BME280;29282;45.656;11.302;2022-10-16T10:32:55;99091.56;;;19.27;61.88
33163;BME280;29282;45.656;11.302;2022-10-16T10:46:03;99093.47;;;19.27;61.87
33163;BME280;29282;45.656;11.302;2022-10-16T10:48:56;99091.56;;;19.27;61.89
33163;BME280;29282;45.656;11.302;2022-10-16T11:07:50;99106.13;;;19.28;61.82
33163;BME280;29282;45.656;11.302;2022-10-16T11:10:24;99104.97;;;19.29;61.83
33163;BME280;29282;45.656;11.302;2022-10-16T11:12:56;99094.63;;;19.25;61.80
33163;BME280;29282;45.656;11.302;2022-10-16T11:15:28;99093.47;;;19.27;61.79
33163;BME280;29282;45.656;11.302;2022-10-16T11:18:21;99104.47;;;19.27;61.82
33163;BME280;29282;45.656;11.302;2022-10-16T11:20:57;99098.97;;;19.27;61.82
33163;BME280;29282;45.656;11.302;2022-10-16T11:25:57;99097.06;;;19.27;61.79
33163;BME280;29282;45.656;11.302;2022-10-16T11:28:41;99093.47;;;19.27;61.86
33163;BME280;29282;45.656;11.302;2022-10-16T11:31:39;99088.00;;;19.27;61.80
33163;BME280;29282;45.656;11.302;2022-10-16T11:36:39;99084.44;;;19.26;61.85
33163;BME280;29282;45.656;11.302;2022-10-16T11:39:29;99081.69;;;19.26;61.78
33163;BME280;29282;45.656;11.302;2022-10-16T11:49:41;99098.97;;;19.27;61.76
33163;BME280;29282;45.656;11.302;2022-10-16T11:53:08;99098.69;;;19.28;61.86
33163;BME280;29282;45.656;11.302;2022-10-16T11:55:17;99094.63;;;19.25;61.84
33163;BME280;29282;45.656;11.302;2022-10-16T11:58:06;99095.44;;;19.26;61.80
33163;BME280;29282;45.656;11.302;2022-10-16T12:00:45;99087.19;;;19.26;61.84
33163;BME280;29282;45.656;11.302;2022-10-16T12:03:20;99099.81;;;19.27;62.08
33163;BME280;29282;45.656;11.302;2022-10-16T12:08:16;99100.63;;;19.28;61.84
33163;BME280;29282;45.656;11.302;2022-10-16T12:10:45;99092.69;;;19.26;61.74
33163;BME280;29282;45.656;11.302;2022-10-16T12:13:46;99096.22;;;19.27;61.82
33163;BME280;29282;45.656;11.302;2022-10-16T12:18:43;99103.66;;;19.26;61.77
33163;BME280;29282;45.656;11.302;2022-10-16T12:21:10;99093.47;;;19.27;61.78
33163;BME280;29282;45.656;11.302;2022-10-16T12:23:50;99097.38;;;19.25;61.89
33163;BME280;29282;45.656;11.302;2022-10-16T12:26:31;99098.97;;;19.27;61.86
33163;BME280;29282;45.656;11.302;2022-10-16T12:29:25;99094.63;;;19.25;61.83
33163;BME280;29282;45.656;11.302;2022-10-16T12:31:53;99097.38;;;19.25;61.68
33163;BME280;29282;45.656;11.302;2022-10-16T12:34:27;99098.19;;;19.26;61.85
33163;BME280;29282;45.656;11.302;2022-10-16T12:37:11;99097.38;;;19.25;61.88
33163;BME280;29282;45.656;11.302;2022-10-16T12:39:38;99092.69;;;19.26;61.80
33163;BME280;29282;45.656;11.302;2022-10-16T12:42:19;99101.72;;;19.27;61.85
33163;BME280;29282;45.656;11.302;2022-10-16T12:44:45;99097.38;;;19.25;61.81
33163;BME280;29282;45.656;11.302;2022-10-16T12:49:55;99101.72;;;19.27;61.79
33163;BME280;29282;45.656;11.302;2022-10-16T12:52:37;99102.88;;;19.25;61.73
33163;BME280;29282;45.656;11.302;2022-10-16T12:55:05;99096.56;;;19.25;61.79
33163;BME280;29282;45.656;11.302;2022-10-16T13:03:15;99109.16;;;19.26;61.84
33163;BME280;29282;45.656;11.302;2022-10-16T13:11:26;99109.97;;;19.27;61.74
33163;BME280;29282;45.656;11.302;2022-10-16T13:14:19;99113.06;;;19.25;61.73
33163;BME280;29282;45.656;11.302;2022-10-16T13:27:59;99112.25;;;19.24;61.77
33163;BME280;29282;45.656;11.302;2022-10-16T13:30:28;99122.09;;;19.25;61.74
33163;BME280;29282;45.656;11.302;2022-10-16T13:33:01;99113.84;;;19.25;61.76
33163;BME280;29282;45.656;11.302;2022-10-16T13:35:30;99119.34;;;19.25;61.87
33163;BME280;29282;45.656;11.302;2022-10-16T13:38:13;99126.47;;;19.27;61.93
33163;BME280;29282;45.656;11.302;2022-10-16T13:40:56;99127.59;;;19.25;61.79
33163;BME280;29282;45.656;11.302;2022-10-16T13:46:07;99131.16;;;19.26;62.00
33163;BME280;29282;45.656;11.302;2022-10-16T13:48:36;99124.84;;;19.25;61.90
33163;BME280;29282;45.656;11.302;2022-10-16T13:51:15;99131.94;;;19.27;61.88
33163;BME280;29282;45.656;11.302;2022-10-16T13:53:41;99130.34;;;19.25;61.78
33163;BME280;29282;45.656;11.302;2022-10-16T13:56:11;99133.91;;;19.26;61.78
33163;BME280;29282;45.656;11.302;2022-10-16T13:58:37;99135.84;;;19.25;61.85
33163;BME280;29282;45.656;11.302;2022-10-16T14:01:20;99131.47;;;19.24;61.87
33163;BME280;29282;45.656;11.302;2022-10-16T14:03:48;99127.59;;;19.25;61.89
33163;BME280;29282;45.656;11.302;2022-10-16T14:06:17;99141.34;;;19.25;61.75
33163;BME280;29282;45.656;11.302;2022-10-16T14:08:53;99135.84;;;19.25;61.90
33163;BME280;29282;45.656;11.302;2022-10-16T14:11:23;99132.78;;;19.27;61.75
33163;BME280;29282;45.656;11.302;2022-10-16T14:13:49;99134.22;;;19.24;61.89
33163;BME280;29282;45.656;11.302;2022-10-16T14:16:21;99131.47;;;19.24;61.86
33163;BME280;29282;45.656;11.302;2022-10-16T14:18:59;99135.03;;;19.25;61.79
33163;BME280;29282;45.656;11.302;2022-10-16T14:21:25;99129.53;;;19.25;61.86
33163;BME280;29282;45.656;11.302;2022-10-16T14:23:52;99137.78;;;19.25;61.80
33163;BME280;29282;45.656;11.302;2022-10-16T14:26:20;99130.69;;;19.24;61.80
33163;BME280;29282;45.656;11.302;2022-10-16T14:28:48;99131.47;;;19.24;61.63
33163;BME280;29282;45.656;11.302;2022-10-16T14:31:33;99130.34;;;19.25;61.85
33163;BME280;29282;45.656;11.302;2022-10-16T14:33:59;99131.47;;;19.24;61.86
33163;BME280;29282;45.656;11.302;2022-10-16T14:36:26;99131.47;;;19.24;61.80
33163;BME280;29282;45.656;11.302;2022-10-16T14:41:21;99134.22;;;19.24;61.82
33163;BME280;29282;45.656;11.302;2022-10-16T14:43:52;99136.16;;;19.24;61.86
33163;BME280;29282;45.656;11.302;2022-10-16T14:46:20;99135.03;;;19.25;61.70
33163;BME280;29282;45.656;11.302;2022-10-16T14:48:51;99136.97;;;19.24;61.82
33163;BME280;29282;45.656;11.302;2022-10-16T14:51:19;99135.84;;;19.25;61.87